Meteo Giornale » Osservazioni meteo Stati Uniti (USA) » Bend
ore: 19:10 - Osservazioni Meteo Bend
Lat. 44° 6' N Lon. 121° 12' W Alt. 1055 metri s.l.m.
26 °C
Sereno
Temp. 24 Ore
7 °C
31 °C
Nord/NOvest
18.5 Km/h
Dew point -2 °C
Umidità 15 %
Visibilità 10 Km
Il sole sorge alle ore 06:27
Il sole tramonta alle ore 19:42
| Data e Ora | Cielo e Fenomeni | T °C | DP °C | Um. % | Pres. hPa | Vis. km | Vento km/h | |
|---|---|---|---|---|---|---|---|---|
| Oggi h: 19:10 | Sereno | 26 | -2 | 15 | 1009 | 10 | N/NO 18.5 | |
| Oggi h: 18:55 | Sereno | 27 | -2 | 14 | 1009 | 10 | N 24 | |
| Oggi h: 18:35 | Sereno | 27 | -2 | 14 | 1008 | 10 | N/NO 29.6 | |
| Oggi h: 18:15 | Sereno | 28 | -2 | 13 | 1008 | 10 | N/NO 25.9 | |
| Oggi h: 17:55 | Sereno | 29 | -2 | 13 | 1008 | 10 | N/NO 25.9 | |
| Oggi h: 17:35 | Sereno | 29 | -3 | 12 | 1008 | 10 | N/NO 24 | |
| Oggi h: 17:15 | Sereno | 30 | -3 | 11 | 1009 | 10 | N 20.3 | |
| Oggi h: 16:55 | Sereno | 30 | -3 | 11 | 1009 | 10 | N 16.7 | |
| Oggi h: 16:30 | Sereno | 31 | -3 | 10 | 1009 | 10 | N 18.5 | |
| Oggi h: 16:15 | Sereno | 31 | -4 | 10 | 1009 | 10 | N 14.8 | |
| Oggi h: 15:55 | Sereno | 30 | -4 | 10 | 1009 | 10 | N 11.1 | |
| Oggi h: 15:30 | Sereno | 30 | -3 | 11 | 1009 | 10 | N 16.7 | |
| Oggi h: 15:15 | Sereno | 30 | -3 | 11 | 1010 | 10 | N 14.8 | |
| Oggi h: 14:55 | Sereno | 29 | -4 | 11 | 1010 | 10 | N 9.3 | |
| Oggi h: 14:30 | Sereno | 29 | -4 | 11 | 1010 | 10 | N 9.3 | |
| Oggi h: 14:15 | Sereno | 28 | -4 | 12 | 1011 | 10 | NO 16.7 | |
| Oggi h: 13:55 | Sereno | 28 | -4 | 12 | 1011 | 10 | NO 13 | |
| Oggi h: 13:35 | Sereno | 27 | -3 | 13 | 1011 | 10 | N 14.8 | |
| Oggi h: 13:15 | Sereno | 27 | -3 | 13 | 1011 | 10 | N 13 | |
| Oggi h: 12:55 | Sereno | 26 | -6 | 11 | 1012 | 10 | N 5.5 | |
| Oggi h: 12:30 | Sereno | 26 | -6 | 11 | 1012 | 10 | N 7.4 | |
| Oggi h: 12:15 | Sereno | 25 | -5 | 13 | 1012 | 10 | N 5.5 | |
| Oggi h: 11:55 | Sereno | 24 | -4 | 15 | 1013 | 10 | N 0 | |
| Oggi h: 11:30 | Sereno | 24 | -3 | 16 | 1013 | 10 | N 9.3 | |
| Oggi h: 11:15 | Sereno | 23 | -2 | 18 | 1014 | 10 | N 5.5 | |
| Oggi h: 10:55 | Sereno | 22 | -1 | 21 | 1014 | 10 | N 0 | |
| Oggi h: 10:35 | Sereno | 21 | -1 | 22 | 1014 | 10 | N 0 | |
| Oggi h: 10:10 | Sereno | 20 | 0 | 26 | 1014 | 10 | N 0 | |
| Oggi h: 09:55 | Sereno | 19 | 1 | 29 | 1014 | 14 | N 0 | |
| Oggi h: 09:30 | Sereno | 18 | 0 | 29 | 1015 | 10 | N 0 | |
| Oggi h: 09:15 | Sereno | 17 | 0 | 31 | 1015 | 10 | N 0 | |
| Oggi h: 08:55 | Sereno | 16 | 0 | 33 | 1015 | 10 | N 0 | |
| Oggi h: 08:30 | Sereno | 14 | -1 | 35 | 1015 | 10 | N 0 | |
| Oggi h: 08:15 | Sereno | 12 | -1 | 40 | 1015 | 10 | N 0 | |
| Oggi h: 07:55 | Sereno | 11 | -1 | 43 | 1015 | 10 | S 7.4 | |
| Oggi h: 07:35 | Sereno | 10 | -1 | 46 | 1015 | 10 | S 7.4 | |
| Oggi h: 07:15 | Sereno | 9 | -1 | 49 | 1015 | 14 | S 9.3 | |
| Oggi h: 06:55 | Sereno | 8 | -2 | 49 | 1015 | 10 | S 7.4 | |
| Oggi h: 06:35 | Sereno | 8 | -2 | 49 | 1015 | 10 | S 9.3 | |
| Oggi h: 06:15 | Sereno | 7 | -2 | 52 | 1015 | 10 | N 5.5 | |
| Oggi h: 05:55 | Sereno | 8 | -1 | 52 | 1015 | 10 | S/SO 9.3 | |
| Oggi h: 05:30 | Sereno | 8 | -1 | 52 | 1015 | 10 | S/SO 11.1 | |
| Oggi h: 05:15 | Sereno | 8 | -1 | 52 | 1015 | 10 | S/SO 13 | |
| Oggi h: 04:55 | Sereno | 8 | -1 | 52 | 1015 | 10 | S/SO 11.1 | |
| Oggi h: 04:35 | Sereno | 8 | -1 | 52 | 1015 | 10 | S/SO 9.3 | |
| Oggi h: 04:15 | Sereno | 8 | -2 | 49 | 1015 | 10 | S/SO 13 | |
| Oggi h: 03:55 | Sereno | 9 | -2 | 45 | 1015 | 10 | SO 9.3 | |
| Oggi h: 03:30 | Sereno | 9 | -2 | 45 | 1016 | 10 | S/SO 13 | |
| Oggi h: 03:15 | Sereno | 9 | -2 | 45 | 1016 | 10 | S/SO 11.1 | |
| Oggi h: 02:55 | Sereno | 9 | -2 | 45 | 1016 | 10 | SO 11.1 | |
| Oggi h: 02:30 | Sereno | 10 | -2 | 42 | 1016 | 10 | SO 9.3 | |
| Oggi h: 02:15 | Sereno | 10 | -2 | 42 | 1016 | 10 | N 5.5 | |
| Oggi h: 01:55 | Sereno | 10 | -2 | 42 | 1016 | 10 | SO 9.3 | |
| Oggi h: 01:30 | Sereno | 10 | -2 | 42 | 1016 | 10 | S/SO 11.1 | |
| Oggi h: 01:15 | Sereno | 10 | -2 | 42 | 1016 | 10 | SO 9.3 | |
| Oggi h: 00:50 | Sereno | 11 | -2 | 40 | 1016 | 10 | S/SO 7.4 | |
| Oggi h: 00:30 | Poco Nuvoloso | 11 | -2 | 40 | 1016 | 10 | N 5.5 | |
| Oggi h: 00:15 | Molto Nuvoloso | 11 | -2 | 40 | 1016 | 10 | SO 7.4 | |
| Ieri h: 23:55 | Molto Nuvoloso | 13 | -2 | 35 | 1016 | 10 | N 0 | |
| Ieri h: 23:30 | Poco Nuvoloso | 15 | -1 | 33 | 1016 | 10 | N 5.5 | |
| Ieri h: 23:10 | Poco Nuvoloso | 14 | -2 | 32 | 1016 | 10 | O 11.1 | |
| Ieri h: 22:55 | Molto Nuvoloso | 13 | -2 | 35 | 1017 | 10 | O 7.4 | |
| Ieri h: 22:35 | Molto Nuvoloso | 15 | -2 | 30 | 1017 | 10 | N 0 | |
| Ieri h: 22:10 | Nuvoloso | 14 | -2 | 32 | 1017 | 10 | N 0 | |
| Ieri h: 21:55 | Poco Nuvoloso | 15 | -2 | 30 | 1017 | 10 | N 0 | |
| Ieri h: 21:35 | Sereno | 16 | -3 | 26 | 1017 | 10 | N 0 | |
| Ieri h: 21:10 | Sereno | 17 | -3 | 25 | 1016 | 10 | N 5.5 | |
| Ieri h: 20:55 | Sereno | 18 | -5 | 20 | 1016 | 10 | N 0 | |
| Ieri h: 20:35 | Sereno | 19 | -5 | 19 | 1016 | 10 | N 5.5 | |
| Ieri h: 20:10 | Sereno | 20 | -7 | 15 | 1016 | 10 | N 9.3 | |
| Ieri h: 19:55 | Sereno | 21 | -8 | 13 | 1016 | 10 | N 0 | |
| Ieri h: 19:35 | Sereno | 23 | -8 | 11 | 1016 | 10 | N 7.4 | |



